createdAt,value
2023-06-19T00:00:41.517Z,38.30
2023-06-19T00:03:09.643Z,38.40
2023-06-19T00:05:36.550Z,38.60
2023-06-19T00:08:07.576Z,38.60
2023-06-19T00:10:34.821Z,38.70
2023-06-19T00:13:04.696Z,38.90
2023-06-19T00:15:31.688Z,38.80
2023-06-19T00:18:08.024Z,39.00
2023-06-19T00:20:37.311Z,39.30
2023-06-19T00:23:11.679Z,39.10
2023-06-19T00:25:38.651Z,39.20
2023-06-19T00:28:12.565Z,39.20
2023-06-19T00:30:42.931Z,39.30
2023-06-19T00:33:12.365Z,39.50
2023-06-19T00:35:39.236Z,39.40
2023-06-19T00:38:08.866Z,39.50
2023-06-19T00:40:36.534Z,39.60
2023-06-19T00:43:03.928Z,39.60
2023-06-19T00:45:33.771Z,39.70
2023-06-19T00:48:05.476Z,39.90
2023-06-19T00:50:34.848Z,40.00
2023-06-19T00:53:05.531Z,40.30
2023-06-19T00:55:37.490Z,40.30
2023-06-19T00:58:06.910Z,40.30
2023-06-19T01:00:33.798Z,40.40
2023-06-19T01:03:00.926Z,40.40
2023-06-19T01:05:32.148Z,40.60
2023-06-19T01:08:39.674Z,40.70
2023-06-19T01:11:26.564Z,42.00
2023-06-19T01:14:06.974Z,41.30
2023-06-19T01:16:35.554Z,41.70
2023-06-19T01:19:10.705Z,41.10
2023-06-19T01:21:42.856Z,41.20
2023-06-19T01:24:09.734Z,41.60
2023-06-19T01:26:41.310Z,41.40
2023-06-19T01:29:09.718Z,41.60
2023-06-19T01:31:57.659Z,41.60
2023-06-19T01:34:29.798Z,42.90
2023-06-19T01:37:00.245Z,42.10
2023-06-19T01:39:28.023Z,42.00
2023-06-19T01:41:58.750Z,42.80
2023-06-19T01:44:28.367Z,42.30
2023-06-19T01:46:57.472Z,42.70
2023-06-19T01:49:24.467Z,42.50
2023-06-19T01:51:54.376Z,42.60
2023-06-19T01:54:21.210Z,43.00
2023-06-19T01:56:53.193Z,42.80
2023-06-19T01:59:24.648Z,42.90
2023-06-19T02:01:51.554Z,43.00
2023-06-19T02:04:23.012Z,43.20
2023-06-19T02:06:52.243Z,43.30
2023-06-19T02:09:22.256Z,43.50
2023-06-19T02:11:51.209Z,43.40
2023-06-19T02:14:24.122Z,43.40
2023-06-19T02:16:56.416Z,43.80
2023-06-19T02:19:23.223Z,43.80
2023-06-19T02:21:54.462Z,43.60
2023-06-19T02:24:21.408Z,43.70
2023-06-19T02:26:52.872Z,43.80
2023-06-19T02:29:19.859Z,44.10
2023-06-19T02:31:46.763Z,43.90
2023-06-19T02:34:13.677Z,43.90
2023-06-19T02:36:43.138Z,44.10
2023-06-19T02:39:14.263Z,44.30
2023-06-19T02:41:47.888Z,44.20
2023-06-19T02:44:19.423Z,44.30
2023-06-19T02:46:48.487Z,44.20
2023-06-19T02:49:20.928Z,44.30
2023-06-19T02:51:47.813Z,44.40
2023-06-19T02:54:23.469Z,45.10
2023-06-19T02:56:54.897Z,44.50
2023-06-19T02:59:24.384Z,44.60
2023-06-19T03:01:53.478Z,44.80
2023-06-19T03:04:24.981Z,44.70
2023-06-19T03:06:54.163Z,44.70
2023-06-19T03:09:23.491Z,44.80
2023-06-19T03:11:50.559Z,44.80
2023-06-19T03:14:21.864Z,44.90
2023-06-19T03:16:51.090Z,44.80
2023-06-19T03:19:23.077Z,44.80
2023-06-19T03:21:50.454Z,45.00
2023-06-19T03:24:24.831Z,44.80
2023-06-19T03:26:58.471Z,44.90
2023-06-19T03:29:28.967Z,44.90
2023-06-19T03:32:01.562Z,44.70
2023-06-19T03:34:34.724Z,44.60
2023-06-19T03:37:05.883Z,44.60
2023-06-19T03:39:33.998Z,44.60
2023-06-19T03:42:06.836Z,44.50
2023-06-19T03:44:36.540Z,44.50
2023-06-19T03:47:06.012Z,44.50
2023-06-19T03:49:33.072Z,44.60
2023-06-19T03:52:02.880Z,44.60
2023-06-19T03:54:29.772Z,44.60
2023-06-19T03:56:59.137Z,44.60
2023-06-19T03:59:30.656Z,44.60
2023-06-19T04:01:57.675Z,44.70
2023-06-19T04:04:28.128Z,44.60
2023-06-19T04:06:56.256Z,44.60
2023-06-19T04:09:25.860Z,44.60
2023-06-19T04:11:54.572Z,44.50
2023-06-19T04:14:29.085Z,44.50
2023-06-19T04:16:58.130Z,44.60
2023-06-19T04:19:30.430Z,44.50
2023-06-19T04:22:00.697Z,44.50
2023-06-19T04:24:30.670Z,44.50
2023-06-19T04:27:00.175Z,44.60
2023-06-19T04:29:32.807Z,44.60
2023-06-19T04:32:00.313Z,44.80
2023-06-19T04:34:32.452Z,45.00
2023-06-19T04:37:04.087Z,45.30
2023-06-19T04:39:31.029Z,45.10
2023-06-19T04:42:00.430Z,45.20
2023-06-19T04:44:34.694Z,45.30
2023-06-19T04:47:06.822Z,45.40
2023-06-19T04:49:38.437Z,45.50
2023-06-19T04:52:05.616Z,45.80
2023-06-19T04:54:35.016Z,45.80
2023-06-19T04:57:04.633Z,45.90
2023-06-19T04:59:38.355Z,45.90
2023-06-19T05:02:08.448Z,46.20
2023-06-19T05:04:37.684Z,46.10
2023-06-19T05:07:11.423Z,46.20
2023-06-19T05:09:40.887Z,46.30
2023-06-19T05:12:12.114Z,46.20
2023-06-19T05:14:41.466Z,46.40
2023-06-19T05:17:10.549Z,46.60
2023-06-19T05:19:37.601Z,46.40
2023-06-19T05:22:04.831Z,46.50
2023-06-19T05:24:36.430Z,46.50
2023-06-19T05:27:05.992Z,46.60
2023-06-19T05:29:33.632Z,46.60
2023-06-19T05:32:02.582Z,46.60
2023-06-19T05:34:29.730Z,46.70
2023-06-19T05:36:56.604Z,46.70
2023-06-19T05:39:25.827Z,47.40
2023-06-19T05:41:52.768Z,46.80
2023-06-19T05:44:20.113Z,46.90
2023-06-19T05:46:47.130Z,46.90
2023-06-19T05:49:16.209Z,47.00
2023-06-19T05:51:43.094Z,46.90
2023-06-19T05:54:10.834Z,47.00
2023-06-19T05:56:39.819Z,47.10
2023-06-19T05:59:09.058Z,47.10
2023-06-19T06:01:38.128Z,47.10
2023-06-19T06:04:09.651Z,47.10
2023-06-19T06:06:36.594Z,47.10
2023-06-19T06:09:05.957Z,47.10
2023-06-19T06:11:32.869Z,47.10
2023-06-19T06:14:06.805Z,47.20
2023-06-19T06:16:41.496Z,47.30
2023-06-19T06:19:08.446Z,47.20
2023-06-19T06:21:37.715Z,47.20
2023-06-19T06:24:04.964Z,47.20
2023-06-19T06:26:37.980Z,47.30
2023-06-19T06:29:07.695Z,47.30
2023-06-19T06:31:40.794Z,47.30
2023-06-19T06:34:07.907Z,47.50
2023-06-19T06:36:37.151Z,47.40
2023-06-19T06:39:08.120Z,47.40
2023-06-19T06:41:37.730Z,47.50
2023-06-19T06:44:08.229Z,47.60
2023-06-19T06:46:37.727Z,47.50
2023-06-19T06:49:07.060Z,47.50
2023-06-19T06:51:33.998Z,47.50
2023-06-19T06:54:05.175Z,47.50
2023-06-19T06:56:32.043Z,47.50
2023-06-19T06:59:03.560Z,47.40
2023-06-19T07:01:30.577Z,47.50
2023-06-19T07:03:57.497Z,47.50
2023-06-19T07:06:31.587Z,47.50
2023-06-19T07:08:58.544Z,47.50
2023-06-19T07:11:25.455Z,47.50
2023-06-19T07:13:54.386Z,47.50
2023-06-19T07:16:23.654Z,47.60
2023-06-19T07:18:55.558Z,47.60
2023-06-19T07:21:28.990Z,47.60
2023-06-19T07:23:56.460Z,47.50
2023-06-19T07:26:25.524Z,47.50
2023-06-19T07:28:52.445Z,47.50
2023-06-19T07:31:24.060Z,48.00
2023-06-19T07:33:51.301Z,47.20
2023-06-19T07:36:21.224Z,47.20
2023-06-19T07:38:50.336Z,47.10
2023-06-19T07:41:19.528Z,47.10
2023-06-19T07:43:51.203Z,47.10
2023-06-19T07:46:20.293Z,47.10
2023-06-19T07:48:47.182Z,47.00
2023-06-19T07:51:16.655Z,46.90
2023-06-19T07:53:45.651Z,47.00
2023-06-19T07:56:12.714Z,46.90
2023-06-19T07:58:39.633Z,47.00
2023-06-19T08:01:09.094Z,46.90
2023-06-19T08:03:38.773Z,46.90
2023-06-19T08:06:08.263Z,46.80
2023-06-19T08:08:37.201Z,46.80
2023-06-19T08:11:09.520Z,46.70
2023-06-19T08:13:38.917Z,46.70
2023-06-19T08:16:11.478Z,46.60
2023-06-19T08:18:38.382Z,46.70
2023-06-19T08:21:05.268Z,46.60
2023-06-19T08:23:34.394Z,46.50
2023-06-19T08:26:03.394Z,46.70
2023-06-19T08:28:33.234Z,46.60
2023-06-19T08:31:00.142Z,46.60
2023-06-19T08:33:29.442Z,46.70
2023-06-19T08:35:56.329Z,46.80
2023-06-19T08:38:25.597Z,46.70
2023-06-19T08:40:52.507Z,46.90
2023-06-19T08:43:19.393Z,47.00
2023-06-19T08:46:15.822Z,47.00
2023-06-19T08:48:47.686Z,46.80
2023-06-19T08:51:17.400Z,46.70
2023-06-19T08:53:59.207Z,46.60
2023-06-19T08:56:28.713Z,46.40
2023-06-19T08:59:00.189Z,46.40
2023-06-19T09:01:33.763Z,46.30
2023-06-19T09:04:03.292Z,46.30
2023-06-19T09:06:32.393Z,46.30
2023-06-19T09:09:01.031Z,46.20
2023-06-19T09:11:28.656Z,46.20
2023-06-19T09:13:59.604Z,46.90
2023-06-19T09:16:48.315Z,46.20
2023-06-19T09:19:22.019Z,46.30
2023-06-19T09:21:49.544Z,46.20
2023-06-19T09:24:23.173Z,46.20
2023-06-19T09:27:05.946Z,46.20
2023-06-19T09:29:39.141Z,46.10
2023-06-19T09:32:19.893Z,46.10
2023-06-19T09:34:54.275Z,46.10
2023-06-19T09:37:26.686Z,45.90
2023-06-19T09:40:11.691Z,45.80
2023-06-19T09:42:47.494Z,45.60
2023-06-19T09:45:33.797Z,45.50
2023-06-19T09:48:00.726Z,45.40
2023-06-19T09:50:49.583Z,45.40
2023-06-19T09:53:16.993Z,45.30
2023-06-19T09:55:47.016Z,45.20
2023-06-19T09:58:17.856Z,45.30
2023-06-19T10:00:46.234Z,45.30
2023-06-19T10:03:17.720Z,45.30
2023-06-19T10:05:45.254Z,45.20
2023-06-19T10:08:14.244Z,45.10
2023-06-19T10:10:54.426Z,45.10
2023-06-19T10:13:21.339Z,45.00
2023-06-19T10:15:50.651Z,45.00
2023-06-19T10:18:26.009Z,44.80
2023-06-19T10:20:56.434Z,44.50
2023-06-19T10:23:30.054Z,44.30
2023-06-19T10:26:03.641Z,44.30
2023-06-19T10:28:35.078Z,44.20
2023-06-19T10:31:10.942Z,44.20
2023-06-19T10:33:41.391Z,44.00
2023-06-19T10:36:19.978Z,43.70
2023-06-19T10:38:50.471Z,43.60
2023-06-19T10:41:26.153Z,43.70
2023-06-19T10:44:09.908Z,43.20
2023-06-19T10:46:44.712Z,42.80
2023-06-19T10:49:14.637Z,43.00
2023-06-19T10:51:44.912Z,42.90
2023-06-19T10:54:14.344Z,42.90
2023-06-19T10:56:41.382Z,42.90
2023-06-19T10:59:10.578Z,42.90
2023-06-19T11:01:44.568Z,43.00
2023-06-19T11:04:13.453Z,42.80
2023-06-19T11:06:43.048Z,42.80
2023-06-19T11:09:14.490Z,42.70
2023-06-19T11:11:44.161Z,42.80
2023-06-19T11:14:13.765Z,42.70
2023-06-19T11:16:51.369Z,42.60
2023-06-19T11:19:37.174Z,42.60
2023-06-19T11:22:04.468Z,42.50
2023-06-19T11:24:33.776Z,42.40
2023-06-19T11:27:04.129Z,42.40
2023-06-19T11:29:37.800Z,42.30
2023-06-19T11:32:17.398Z,42.70
2023-06-19T11:34:46.578Z,42.00
2023-06-19T11:37:22.056Z,41.90
2023-06-19T11:39:50.782Z,41.70
2023-06-19T11:42:20.777Z,42.00
2023-06-19T11:45:03.485Z,41.90
2023-06-19T11:47:37.718Z,41.90
2023-06-19T11:50:07.089Z,41.70
2023-06-19T11:52:36.828Z,41.80
2023-06-19T11:55:04.212Z,41.50
2023-06-19T11:57:31.119Z,41.50
2023-06-19T11:59:58.138Z,41.50
2023-06-19T12:02:32.277Z,41.50
2023-06-19T12:04:59.324Z,41.70
2023-06-19T12:07:26.544Z,41.60
2023-06-19T12:09:56.054Z,41.50
2023-06-19T12:12:27.595Z,41.20
2023-06-19T12:14:59.175Z,40.60
2023-06-19T12:17:28.703Z,40.50
2023-06-19T12:19:57.877Z,40.60
2023-06-19T12:22:24.786Z,40.50
2023-06-19T12:24:51.662Z,40.40
2023-06-19T12:27:18.585Z,40.30
2023-06-19T12:29:47.512Z,40.40
2023-06-19T12:32:17.145Z,40.40
2023-06-19T12:34:47.445Z,40.40
2023-06-19T12:37:21.456Z,40.20
2023-06-19T12:39:50.352Z,40.00
2023-06-19T12:42:20.747Z,39.80
2023-06-19T12:44:49.803Z,39.70
2023-06-19T12:47:19.410Z,39.80
2023-06-19T12:49:46.488Z,39.80
2023-06-19T12:52:18.068Z,39.60
2023-06-19T12:54:49.809Z,39.40
2023-06-19T12:57:16.715Z,39.30
2023-06-19T12:59:46.223Z,39.30
2023-06-19T13:02:15.376Z,38.90
2023-06-19T13:04:42.797Z,38.80
2023-06-19T13:07:09.983Z,38.70
2023-06-19T13:09:41.688Z,38.40
2023-06-19T13:12:09.474Z,38.20
2023-06-19T13:14:36.453Z,38.20
2023-06-19T13:17:03.696Z,38.10
2023-06-19T13:19:35.151Z,38.10
2023-06-19T13:22:04.632Z,38.70
2023-06-19T13:24:31.675Z,37.80
2023-06-19T13:27:03.854Z,38.00
2023-06-19T13:29:30.869Z,37.90
2023-06-19T13:32:00.313Z,37.70
2023-06-19T13:34:29.767Z,37.70
2023-06-19T13:36:59.134Z,37.80
2023-06-19T13:39:26.183Z,37.80
2023-06-19T13:41:55.396Z,37.50
2023-06-19T13:44:24.866Z,37.30
2023-06-19T13:46:55.160Z,37.50
2023-06-19T13:49:29.123Z,37.70
2023-06-19T13:52:03.717Z,37.50
2023-06-19T13:54:34.990Z,37.50
2023-06-19T13:57:01.929Z,37.80
2023-06-19T13:59:28.765Z,37.70
2023-06-19T14:01:58.168Z,37.70
2023-06-19T14:04:32.757Z,37.90
2023-06-19T14:06:59.815Z,38.00
2023-06-19T14:09:26.648Z,37.70
2023-06-19T14:11:53.569Z,37.50
2023-06-19T14:14:22.514Z,37.40
2023-06-19T14:16:54.076Z,37.20
2023-06-19T14:19:24.326Z,36.70
2023-06-19T14:21:55.502Z,36.70
2023-06-19T14:24:25.584Z,36.80
2023-06-19T14:26:52.603Z,36.60
2023-06-19T14:29:20.003Z,36.70
2023-06-19T14:31:52.212Z,36.80
2023-06-19T14:34:23.403Z,36.60
2023-06-19T14:36:50.636Z,36.30
2023-06-19T14:39:20.048Z,36.30
2023-06-19T14:41:49.258Z,36.20
2023-06-19T14:44:16.568Z,36.20
2023-06-19T14:46:45.785Z,36.30
2023-06-19T14:49:15.538Z,36.40
2023-06-19T14:51:48.123Z,36.10
2023-06-19T14:54:18.660Z,36.20
2023-06-19T14:56:50.240Z,36.30
2023-06-19T14:59:17.454Z,35.90
2023-06-19T15:01:48.996Z,35.60
2023-06-19T15:04:20.781Z,35.20
2023-06-19T15:06:50.861Z,34.70
2023-06-19T15:09:19.850Z,34.60
2023-06-19T15:11:48.971Z,33.90
2023-06-19T15:14:18.639Z,34.00
2023-06-19T15:16:50.144Z,33.80
2023-06-19T15:19:19.677Z,33.50
2023-06-19T15:21:51.587Z,33.30
2023-06-19T15:24:18.519Z,33.30
2023-06-19T15:26:45.378Z,33.10
2023-06-19T15:29:14.775Z,33.20
2023-06-19T15:31:41.904Z,32.90
2023-06-19T15:34:13.370Z,33.10
2023-06-19T15:36:43.275Z,33.20
2023-06-19T15:39:12.174Z,33.20
2023-06-19T15:41:44.130Z,33.40
2023-06-19T15:44:13.644Z,33.40
2023-06-19T15:46:40.629Z,33.60
2023-06-19T15:49:11.609Z,33.50
2023-06-19T15:51:41.142Z,33.60
2023-06-19T15:54:10.480Z,33.60
2023-06-19T15:56:40.647Z,33.80
2023-06-19T15:59:07.442Z,33.80
2023-06-19T16:01:36.903Z,33.80
2023-06-19T16:04:04.231Z,33.80
2023-06-19T16:11:05.630Z,33.70
2023-06-19T16:13:32.683Z,34.10
2023-06-19T16:16:01.766Z,34.20
2023-06-19T16:18:31.050Z,34.10
2023-06-19T16:20:58.072Z,34.00
2023-06-19T16:23:29.652Z,34.00
2023-06-19T16:26:01.167Z,34.10
2023-06-19T16:28:30.515Z,33.90
2023-06-19T16:30:57.459Z,34.50
2023-06-19T16:33:26.620Z,34.00
2023-06-19T16:35:55.376Z,34.00
2023-06-19T16:38:24.479Z,33.90
2023-06-19T16:40:53.646Z,33.90
2023-06-19T16:43:25.530Z,34.10
2023-06-19T16:45:54.758Z,33.90
2023-06-19T16:48:21.722Z,34.00
2023-06-19T16:50:51.281Z,33.90
2023-06-19T16:53:20.487Z,34.00
2023-06-19T16:55:50.379Z,34.00
2023-06-19T16:58:19.328Z,34.00
2023-06-19T17:00:46.250Z,34.10
2023-06-19T17:03:14.043Z,34.10
2023-06-19T17:05:46.228Z,34.20
2023-06-19T17:08:17.744Z,34.10
2023-06-19T17:10:48.822Z,34.20
2023-06-19T17:13:16.079Z,34.10
2023-06-19T17:15:42.914Z,34.10
2023-06-19T17:18:13.007Z,34.20
2023-06-19T17:20:45.400Z,34.20
2023-06-19T17:23:14.350Z,34.30
2023-06-19T17:25:46.791Z,34.20
2023-06-19T17:28:18.319Z,34.40
2023-06-19T17:30:49.957Z,34.40
2023-06-19T17:33:16.871Z,34.50
2023-06-19T17:35:46.104Z,34.50
2023-06-19T17:38:15.219Z,34.70
2023-06-19T17:40:44.326Z,34.70
2023-06-19T17:43:11.231Z,34.80
2023-06-19T17:45:40.386Z,34.90
2023-06-19T17:48:14.391Z,34.90
2023-06-19T17:50:43.425Z,35.00
2023-06-19T17:53:15.053Z,35.00
2023-06-19T17:55:44.213Z,35.00
2023-06-19T17:58:13.536Z,35.00
2023-06-19T18:00:45.168Z,35.10
2023-06-19T18:03:16.649Z,35.10
2023-06-19T18:05:46.025Z,35.20
2023-06-19T18:08:12.873Z,35.20
2023-06-19T18:10:41.807Z,35.30
2023-06-19T18:13:08.782Z,35.30
2023-06-19T18:15:38.134Z,35.40
2023-06-19T18:18:10.017Z,35.50
2023-06-19T18:20:37.105Z,35.50
2023-06-19T18:23:04.061Z,35.50
2023-06-19T18:25:35.417Z,35.60
2023-06-19T18:28:02.317Z,35.70
2023-06-19T18:30:33.701Z,35.70
2023-06-19T18:33:07.915Z,35.80
2023-06-19T18:35:37.416Z,35.90
2023-06-19T18:38:06.646Z,35.90
2023-06-19T18:40:36.081Z,36.00
2023-06-19T18:43:05.170Z,36.00
2023-06-19T18:45:33.040Z,36.10
2023-06-19T18:48:02.620Z,36.20
2023-06-19T18:50:32.068Z,36.10
2023-06-19T18:52:59.123Z,36.20
2023-06-19T18:55:33.243Z,36.40
2023-06-19T18:58:02.413Z,36.40
2023-06-19T19:00:35.897Z,36.40
2023-06-19T19:03:03.212Z,36.40
2023-06-19T19:05:30.145Z,36.50
2023-06-19T19:07:59.503Z,36.50
2023-06-19T19:10:28.525Z,37.30
2023-06-19T19:13:03.631Z,36.70
2023-06-19T19:15:35.298Z,36.70
2023-06-19T19:18:02.691Z,36.80
2023-06-19T19:20:31.887Z,36.90
2023-06-19T19:23:01.178Z,36.90
2023-06-19T19:25:28.064Z,37.00
2023-06-19T19:27:57.236Z,37.10
2023-06-19T19:30:29.575Z,37.20
2023-06-19T19:32:59.109Z,37.30
2023-06-19T19:35:26.065Z,37.30
2023-06-19T19:37:53.214Z,37.40
2023-06-19T19:40:23.003Z,37.40
2023-06-19T19:42:52.340Z,37.50
2023-06-19T19:45:21.610Z,37.60
2023-06-19T19:47:50.914Z,37.60
2023-06-19T19:50:18.444Z,37.60
2023-06-19T19:52:47.606Z,37.70
2023-06-19T19:55:14.615Z,37.80
2023-06-19T19:57:46.072Z,37.90
2023-06-19T20:00:20.629Z,37.90
2023-06-19T20:02:49.851Z,37.90
2023-06-19T20:05:19.195Z,38.00
2023-06-19T20:07:46.091Z,38.20
2023-06-19T20:10:17.878Z,38.20
2023-06-19T20:12:47.060Z,38.40
2023-06-19T20:15:16.651Z,38.50
2023-06-19T20:17:45.927Z,38.60
2023-06-19T20:20:15.707Z,38.70
2023-06-19T20:22:42.561Z,38.70
2023-06-19T20:25:10.033Z,38.80
2023-06-19T20:27:36.988Z,38.90
2023-06-19T20:30:06.795Z,39.00
2023-06-19T20:32:40.844Z,39.10
2023-06-19T20:35:10.855Z,39.30
2023-06-19T20:37:40.129Z,39.20
2023-06-19T20:40:10.642Z,39.20
2023-06-19T20:42:42.062Z,39.40
2023-06-19T20:45:15.197Z,39.40
2023-06-19T20:47:45.092Z,39.60
2023-06-19T20:50:13.709Z,39.70
2023-06-19T20:52:42.882Z,39.80
2023-06-19T20:55:14.082Z,39.90
2023-06-19T20:57:43.523Z,40.00
2023-06-19T21:00:13.360Z,40.30
2023-06-19T21:02:45.259Z,40.20
2023-06-19T21:05:18.713Z,40.40
2023-06-19T21:07:48.903Z,40.90
2023-06-19T21:10:20.671Z,40.60
2023-06-19T21:12:47.564Z,40.70
2023-06-19T21:15:16.505Z,40.80
2023-06-19T21:17:43.565Z,40.90
2023-06-19T21:20:13.396Z,41.10
2023-06-19T21:22:43.305Z,41.30
2023-06-19T21:25:10.540Z,41.30
2023-06-19T21:27:44.169Z,41.40
2023-06-19T21:30:12.168Z,41.50
2023-06-19T21:32:47.913Z,41.60
2023-06-19T21:35:14.822Z,41.90
2023-06-19T21:37:41.724Z,41.80
2023-06-19T21:40:11.718Z,41.90
2023-06-19T21:42:43.297Z,42.00
2023-06-19T21:45:10.579Z,42.30
2023-06-19T21:47:40.611Z,42.20
2023-06-19T21:50:12.262Z,42.40
2023-06-19T21:52:42.518Z,42.30
2023-06-19T21:55:15.246Z,42.50
2023-06-19T22:00:14.269Z,42.70
2023-06-19T22:02:41.395Z,42.70
2023-06-19T22:05:12.191Z,42.80
2023-06-19T22:07:41.343Z,42.90
2023-06-19T22:10:11.197Z,43.00
2023-06-19T22:12:38.255Z,43.10
2023-06-19T22:15:08.028Z,43.30
2023-06-19T22:17:45.682Z,43.60
2023-06-19T22:20:20.022Z,43.60
2023-06-19T22:22:49.355Z,43.90
2023-06-19T22:25:25.294Z,43.60
2023-06-19T22:27:55.363Z,44.00
2023-06-19T22:30:27.162Z,43.90
2023-06-19T22:32:56.659Z,44.00
2023-06-19T22:35:24.113Z,44.10
2023-06-19T22:37:51.560Z,44.30
2023-06-19T22:40:22.910Z,44.40
2023-06-19T22:42:52.550Z,44.50
2023-06-19T22:45:21.775Z,44.50
2023-06-19T22:47:53.402Z,44.80
2023-06-19T22:50:20.322Z,44.70
2023-06-19T22:52:51.566Z,44.70
2023-06-19T22:55:23.533Z,44.80
2023-06-19T22:57:53.122Z,44.90
2023-06-19T23:00:22.508Z,45.00
2023-06-19T23:02:50.029Z,45.10
2023-06-19T23:05:19.162Z,45.00
2023-06-19T23:07:48.684Z,45.10
2023-06-19T23:10:22.761Z,45.20
2023-06-19T23:12:52.203Z,45.20
2023-06-19T23:15:19.330Z,45.40
2023-06-19T23:17:48.506Z,45.30
2023-06-19T23:20:18.509Z,45.30
2023-06-19T23:22:48.663Z,45.40
2023-06-19T23:25:20.448Z,45.50
2023-06-19T23:27:47.426Z,45.50
2023-06-19T23:30:14.545Z,45.70
2023-06-19T23:32:43.505Z,45.60
2023-06-19T23:35:15.041Z,45.70
2023-06-19T23:37:46.481Z,45.90
2023-06-19T23:40:13.610Z,45.90
2023-06-19T23:42:40.452Z,45.80
2023-06-19T23:45:08.012Z,46.00
2023-06-19T23:47:37.139Z,46.00
2023-06-19T23:50:09.389Z,46.00
2023-06-19T23:52:43.611Z,46.20
2023-06-19T23:55:11.540Z,46.30
2023-06-19T23:57:38.485Z,46.30
